createdAt,value
2023-04-29T00:01:06.758Z,18.90
2023-04-29T00:03:33.754Z,16.67
2023-04-29T00:06:01.242Z,18.37
2023-04-29T00:08:28.389Z,18.47
2023-04-29T00:10:55.629Z,17.73
2023-04-29T00:13:22.523Z,17.20
2023-04-29T00:15:49.468Z,14.70
2023-04-29T00:18:16.278Z,15.93
2023-04-29T00:20:43.693Z,14.33
2023-04-29T00:23:11.103Z,15.23
2023-04-29T00:25:39.247Z,15.93
2023-04-29T00:28:06.413Z,13.57
2023-04-29T00:30:34.473Z,17.57
2023-04-29T00:33:01.337Z,15.53
2023-04-29T00:35:29.462Z,15.20
2023-04-29T00:37:56.189Z,15.40
2023-04-29T00:40:22.971Z,17.33
2023-04-29T00:42:49.723Z,16.87
2023-04-29T00:45:16.624Z,15.20
2023-04-29T00:47:44.130Z,19.27
2023-04-29T00:50:11.223Z,17.80
2023-04-29T00:52:38.401Z,18.27
2023-04-29T00:55:07.089Z,17.87
2023-04-29T00:57:34.742Z,20.97
2023-04-29T01:00:01.562Z,20.43
2023-04-29T01:02:28.839Z,20.10
2023-04-29T01:04:55.903Z,22.30
2023-04-29T01:07:28.868Z,26.30
2023-04-29T01:10:02.070Z,25.73
2023-04-29T01:12:36.851Z,24.20
2023-04-29T01:15:05.781Z,23.73
2023-04-29T01:17:38.099Z,24.53
2023-04-29T01:20:06.929Z,24.30
2023-04-29T01:22:33.989Z,25.50
2023-04-29T01:25:01.000Z,28.63
2023-04-29T01:27:29.972Z,26.17
2023-04-29T01:30:27.845Z,26.30
2023-04-29T01:33:02.256Z,28.13
2023-04-29T01:35:37.074Z,29.73
2023-04-29T01:38:14.980Z,28.90
2023-04-29T01:40:59.361Z,31.53
2023-04-29T01:43:30.164Z,31.77
2023-04-29T01:46:06.793Z,29.87
2023-04-29T01:48:33.628Z,32.97
2023-04-29T01:51:01.549Z,30.53
2023-04-29T01:53:28.321Z,31.30
2023-04-29T01:55:55.477Z,30.37
2023-04-29T01:58:46.903Z,29.67
2023-04-29T02:01:42.848Z,29.67
2023-04-29T02:04:09.729Z,32.50
2023-04-29T02:06:37.227Z,32.70
2023-04-29T02:09:04.947Z,26.83
2023-04-29T02:11:33.937Z,31.23
2023-04-29T02:14:01.801Z,34.53
2023-04-29T02:16:29.064Z,27.93
2023-04-29T02:18:59.162Z,28.40
2023-04-29T02:21:27.678Z,29.60
2023-04-29T02:23:54.772Z,27.30
2023-04-29T02:26:24.219Z,31.10
2023-04-29T02:28:52.681Z,30.03
2023-04-29T02:31:21.163Z,31.03
2023-04-29T02:33:48.946Z,33.20
2023-04-29T02:36:16.003Z,29.13
2023-04-29T02:38:43.714Z,29.33
2023-04-29T02:41:10.382Z,31.50
2023-04-29T02:43:37.060Z,32.50
2023-04-29T02:46:03.868Z,30.43
2023-04-29T02:48:34.006Z,31.43
2023-04-29T02:51:00.787Z,33.40
2023-04-29T02:53:27.798Z,29.57
2023-04-29T02:55:54.717Z,30.13
2023-04-29T02:58:21.535Z,29.37
2023-04-29T03:00:48.284Z,35.93
2023-04-29T03:03:15.237Z,41.97
2023-04-29T03:05:42.150Z,50.63
2023-04-29T03:08:10.474Z,44.00
2023-04-29T03:10:40.543Z,49.97
2023-04-29T03:13:08.038Z,48.93
2023-04-29T03:15:36.569Z,49.90
2023-04-29T03:18:05.051Z,51.67
2023-04-29T03:20:33.856Z,53.47
2023-04-29T03:23:02.878Z,55.53
2023-04-29T03:25:30.368Z,56.63
2023-04-29T03:27:57.550Z,58.57
2023-04-29T03:30:24.588Z,59.50
2023-04-29T03:32:55.736Z,58.00
2023-04-29T03:35:22.549Z,58.37
2023-04-29T03:38:27.467Z,61.33
2023-04-29T03:40:55.144Z,61.53
2023-04-29T03:43:21.960Z,66.60
2023-04-29T03:45:49.331Z,66.37
2023-04-29T03:48:20.246Z,57.27
2023-04-29T03:50:47.493Z,72.37
2023-04-29T03:53:14.803Z,73.00
2023-04-29T03:55:41.684Z,75.80
2023-04-29T03:58:09.815Z,73.83
2023-04-29T04:00:36.664Z,73.27
2023-04-29T04:03:09.452Z,66.57
2023-04-29T04:05:38.350Z,69.27
2023-04-29T04:08:09.098Z,71.53
2023-04-29T04:10:55.051Z,72.00
2023-04-29T04:13:32.091Z,71.07
2023-04-29T04:15:59.254Z,77.83
2023-04-29T04:18:26.383Z,84.10
2023-04-29T04:20:53.142Z,84.40
2023-04-29T04:23:20.262Z,85.40
2023-04-29T04:25:50.171Z,87.17
2023-04-29T04:28:36.859Z,98.63
2023-04-29T04:31:09.162Z,102.47
2023-04-29T04:33:36.510Z,89.17
2023-04-29T04:36:03.279Z,94.23
2023-04-29T04:38:30.100Z,89.90
2023-04-29T04:40:57.000Z,84.83
2023-04-29T04:43:35.725Z,91.27
2023-04-29T04:46:13.733Z,80.47
2023-04-29T04:48:48.827Z,72.80
2023-04-29T04:51:16.579Z,71.87
2023-04-29T04:53:43.421Z,68.07
2023-04-29T04:56:18.442Z,65.93
2023-04-29T04:58:45.190Z,63.93
2023-04-29T05:01:12.003Z,73.97
2023-04-29T05:03:38.866Z,65.13
2023-04-29T05:06:05.935Z,59.80
2023-04-29T05:08:33.045Z,62.17
2023-04-29T05:11:02.461Z,56.60
2023-04-29T05:13:29.139Z,53.47
2023-04-29T05:15:56.430Z,54.93
2023-04-29T05:18:27.025Z,53.67
2023-04-29T05:20:54.199Z,45.80
2023-04-29T05:23:21.069Z,45.60
2023-04-29T05:25:47.920Z,41.57
2023-04-29T05:28:16.815Z,47.00
2023-04-29T05:30:44.777Z,47.87
2023-04-29T05:33:12.424Z,45.47
2023-04-29T05:35:39.606Z,42.70
2023-04-29T05:38:06.321Z,39.93
2023-04-29T05:40:50.300Z,38.93
2023-04-29T05:43:25.692Z,42.17
2023-04-29T05:45:53.264Z,42.40
2023-04-29T05:48:20.138Z,43.07
2023-04-29T05:50:48.428Z,39.00
2023-04-29T05:53:15.588Z,38.50
2023-04-29T05:55:45.199Z,35.30
2023-04-29T05:58:12.820Z,38.13
2023-04-29T06:00:39.768Z,36.80
2023-04-29T06:03:13.104Z,41.17
2023-04-29T06:05:40.709Z,36.83
2023-04-29T06:08:30.979Z,39.87
2023-04-29T06:11:23.816Z,36.03
2023-04-29T06:13:51.095Z,42.10
2023-04-29T06:16:18.081Z,33.03
2023-04-29T06:18:44.850Z,33.17
2023-04-29T06:21:13.867Z,32.40
2023-04-29T06:23:40.938Z,32.63
2023-04-29T06:26:16.027Z,35.63
2023-04-29T06:28:42.770Z,40.80
2023-04-29T06:31:09.646Z,34.17
2023-04-29T06:33:36.410Z,36.43
2023-04-29T06:36:04.601Z,34.83
2023-04-29T06:38:46.243Z,37.73
2023-04-29T06:41:32.372Z,34.33
2023-04-29T06:44:09.387Z,37.70
2023-04-29T06:46:44.826Z,34.90
2023-04-29T06:49:17.998Z,34.33
2023-04-29T06:51:44.792Z,35.43
2023-04-29T06:54:11.512Z,34.60
2023-04-29T06:56:39.414Z,35.83
2023-04-29T06:59:06.339Z,35.43
2023-04-29T07:01:35.592Z,37.93
2023-04-29T07:04:02.665Z,31.63
2023-04-29T07:06:29.690Z,33.60
2023-04-29T07:08:57.142Z,34.90
2023-04-29T07:11:25.016Z,32.93
2023-04-29T07:13:55.352Z,32.33
2023-04-29T07:16:22.424Z,31.07
2023-04-29T07:18:49.643Z,33.27
2023-04-29T07:21:16.446Z,33.97
2023-04-29T07:23:44.266Z,37.57
2023-04-29T07:26:15.880Z,32.23
2023-04-29T07:28:44.967Z,29.23
2023-04-29T07:31:12.620Z,30.27
2023-04-29T07:33:39.520Z,30.93
2023-04-29T07:36:07.534Z,28.60
2023-04-29T07:38:34.952Z,29.93
2023-04-29T07:41:01.748Z,34.63
2023-04-29T07:43:28.948Z,26.83
2023-04-29T07:45:56.023Z,25.97
2023-04-29T07:48:23.158Z,31.13
2023-04-29T07:50:49.973Z,26.60
2023-04-29T07:53:18.335Z,25.43
2023-04-29T07:55:45.135Z,27.13
2023-04-29T07:58:12.623Z,28.50
2023-04-29T08:00:39.691Z,26.93
2023-04-29T08:03:06.670Z,29.93
2023-04-29T08:05:34.496Z,25.63
2023-04-29T08:08:01.430Z,25.43
2023-04-29T08:10:28.142Z,26.37
2023-04-29T08:12:54.822Z,24.87
2023-04-29T08:15:22.278Z,24.90
2023-04-29T08:17:48.981Z,26.67
2023-04-29T08:20:15.819Z,25.17
2023-04-29T08:22:42.901Z,27.10
2023-04-29T08:25:10.577Z,27.13
2023-04-29T08:27:37.333Z,27.50
2023-04-29T08:30:04.759Z,30.50
2023-04-29T08:32:32.405Z,27.13
2023-04-29T08:34:59.473Z,26.23
2023-04-29T08:37:26.615Z,30.87
2023-04-29T08:39:53.302Z,31.33
2023-04-29T08:42:28.523Z,30.53
2023-04-29T08:44:55.463Z,28.93
2023-04-29T08:47:23.430Z,26.70
2023-04-29T08:49:50.293Z,28.77
2023-04-29T08:52:17.118Z,29.67
2023-04-29T08:54:43.934Z,27.43
2023-04-29T08:57:11.775Z,25.00
2023-04-29T08:59:38.458Z,28.33
2023-04-29T09:02:07.757Z,24.73
2023-04-29T09:04:53.239Z,27.37
2023-04-29T09:07:20.448Z,25.50
2023-04-29T09:09:47.864Z,25.70
2023-04-29T09:12:14.556Z,28.63
2023-04-29T09:14:41.497Z,27.83
2023-04-29T09:17:08.270Z,27.00
2023-04-29T09:19:35.477Z,25.93
2023-04-29T09:22:03.298Z,24.13
2023-04-29T09:24:30.725Z,27.40
2023-04-29T09:26:58.833Z,27.03
2023-04-29T09:29:25.543Z,26.00
2023-04-29T09:31:56.245Z,28.30
2023-04-29T09:34:33.300Z,27.40
2023-04-29T09:37:00.057Z,27.27
2023-04-29T09:39:27.330Z,25.03
2023-04-29T09:41:54.483Z,26.43
2023-04-29T09:44:22.612Z,21.80
2023-04-29T09:47:03.305Z,24.97
2023-04-29T09:49:31.306Z,26.70
2023-04-29T09:51:59.509Z,22.93
2023-04-29T09:54:28.695Z,23.63
2023-04-29T09:56:56.148Z,19.80
2023-04-29T09:59:23.797Z,18.13
2023-04-29T10:01:54.999Z,19.30
2023-04-29T10:04:23.334Z,21.57
2023-04-29T10:06:51.621Z,47.23
2023-04-29T10:09:19.181Z,13.37
2023-04-29T10:11:46.695Z,12.67
2023-04-29T10:14:15.776Z,12.87
2023-04-29T10:16:59.641Z,9.93
2023-04-29T10:19:30.993Z,12.73
2023-04-29T10:21:58.930Z,10.33
2023-04-29T10:24:25.839Z,11.80
2023-04-29T10:26:53.675Z,10.33
2023-04-29T10:29:21.200Z,10.23
2023-04-29T10:31:48.906Z,9.57
2023-04-29T10:34:17.187Z,9.33
2023-04-29T10:36:44.619Z,10.97
2023-04-29T10:39:15.183Z,11.23
2023-04-29T10:41:49.173Z,11.37
2023-04-29T10:44:16.054Z,12.53
2023-04-29T10:46:42.865Z,14.80
2023-04-29T10:49:10.835Z,11.03
2023-04-29T10:51:40.794Z,12.43
2023-04-29T10:54:14.778Z,12.43
2023-04-29T10:56:47.913Z,12.53
2023-04-29T10:59:15.406Z,13.10
2023-04-29T11:01:49.616Z,15.27
2023-04-29T11:04:17.247Z,15.23
2023-04-29T11:06:48.008Z,14.37
2023-04-29T11:09:16.249Z,14.80
2023-04-29T11:11:44.244Z,16.17
2023-04-29T11:14:12.651Z,15.20
2023-04-29T11:16:47.182Z,14.70
2023-04-29T11:19:15.802Z,16.53
2023-04-29T11:21:42.881Z,13.97
2023-04-29T11:24:09.641Z,17.07
2023-04-29T11:26:36.658Z,15.87
2023-04-29T11:29:04.979Z,17.77
2023-04-29T11:31:32.474Z,15.33
2023-04-29T11:33:59.834Z,16.07
2023-04-29T11:36:27.482Z,16.27
2023-04-29T11:38:54.309Z,16.37
2023-04-29T11:41:22.035Z,16.03
2023-04-29T11:43:55.145Z,17.50
2023-04-29T11:46:21.923Z,17.33
2023-04-29T11:48:49.154Z,17.57
2023-04-29T11:51:16.599Z,16.00
2023-04-29T11:53:43.499Z,20.43
2023-04-29T11:56:10.881Z,21.23
2023-04-29T11:58:37.821Z,18.10
2023-04-29T12:01:04.831Z,19.57
2023-04-29T12:03:32.709Z,24.00
2023-04-29T12:05:59.981Z,21.93
2023-04-29T12:08:27.955Z,18.67
2023-04-29T12:10:55.914Z,21.63
2023-04-29T12:13:29.743Z,21.17
2023-04-29T12:15:57.172Z,20.17
2023-04-29T12:18:24.200Z,20.07
2023-04-29T12:20:56.055Z,21.90
2023-04-29T12:23:23.527Z,19.20
2023-04-29T12:25:58.222Z,17.93
2023-04-29T12:28:25.383Z,21.57
2023-04-29T12:30:54.379Z,19.40
2023-04-29T12:33:24.651Z,19.67
2023-04-29T12:35:52.031Z,17.90
2023-04-29T12:38:27.796Z,20.30
2023-04-29T12:40:54.985Z,21.63
2023-04-29T12:43:26.540Z,21.07
2023-04-29T12:45:54.534Z,20.03
2023-04-29T12:48:29.404Z,18.80
2023-04-29T12:50:58.664Z,18.27
2023-04-29T12:53:26.376Z,21.37
2023-04-29T12:55:53.435Z,21.03
2023-04-29T12:58:20.473Z,26.33
2023-04-29T13:00:47.239Z,21.37
2023-04-29T13:03:14.593Z,21.77
2023-04-29T13:05:42.247Z,24.00
2023-04-29T13:08:09.224Z,22.13
2023-04-29T13:10:36.131Z,21.83
2023-04-29T13:13:02.840Z,21.63
2023-04-29T13:15:29.525Z,22.23
2023-04-29T13:17:57.314Z,26.27
2023-04-29T13:20:24.134Z,26.43
2023-04-29T13:22:51.822Z,20.50
2023-04-29T13:25:18.646Z,20.80
2023-04-29T13:27:45.568Z,21.57
2023-04-29T13:30:12.507Z,20.47
2023-04-29T13:32:45.956Z,23.20
2023-04-29T13:35:18.443Z,22.70
2023-04-29T13:37:45.201Z,22.03
2023-04-29T13:40:20.002Z,22.03
2023-04-29T13:42:50.063Z,22.03
2023-04-29T13:45:19.964Z,20.50
2023-04-29T13:48:06.858Z,21.73
2023-04-29T13:53:35.795Z,21.97
2023-04-29T13:56:41.172Z,22.00
2023-04-29T14:01:37.727Z,19.23
2023-04-29T14:03:53.056Z,19.60
2023-04-29T14:06:19.935Z,18.53
2023-04-29T14:08:46.681Z,18.00
2023-04-29T14:11:13.537Z,18.27
2023-04-29T14:13:40.437Z,18.27
2023-04-29T14:16:07.442Z,15.60
2023-04-29T14:18:34.161Z,17.80
2023-04-29T14:21:00.944Z,17.57
2023-04-29T14:23:27.741Z,18.17
2023-04-29T14:26:06.258Z,16.13
2023-04-29T14:28:42.152Z,15.00
2023-04-29T14:31:09.056Z,13.53
2023-04-29T14:33:36.042Z,14.83
2023-04-29T14:36:02.741Z,13.20
2023-04-29T14:38:29.610Z,14.37
2023-04-29T14:40:56.653Z,14.53
2023-04-29T14:43:23.482Z,13.07
2023-04-29T14:45:50.374Z,15.33
2023-04-29T14:48:17.149Z,17.77
2023-04-29T14:50:43.804Z,14.57
2023-04-29T14:53:10.555Z,12.73
2023-04-29T14:55:39.343Z,12.60
2023-04-29T14:58:06.125Z,15.50
2023-04-29T15:00:33.092Z,17.17
2023-04-29T15:03:01.944Z,12.27
2023-04-29T15:05:31.140Z,14.40
2023-04-29T15:08:02.173Z,12.80
2023-04-29T15:10:28.931Z,15.33
2023-04-29T15:12:55.828Z,16.67
2023-04-29T15:15:23.314Z,14.80
2023-04-29T15:17:50.088Z,13.87
2023-04-29T15:20:16.974Z,14.47
2023-04-29T15:22:43.902Z,15.30
2023-04-29T15:25:12.290Z,15.57
2023-04-29T15:27:39.450Z,13.80
2023-04-29T15:30:06.927Z,15.23
2023-04-29T15:32:33.738Z,15.57
2023-04-29T15:35:01.735Z,21.93
2023-04-29T15:37:28.835Z,14.50
2023-04-29T15:39:55.959Z,14.43
2023-04-29T15:42:22.803Z,16.13
2023-04-29T15:44:49.686Z,15.73
2023-04-29T15:47:16.947Z,21.27
2023-04-29T15:49:45.072Z,15.13
2023-04-29T15:52:12.098Z,19.63
2023-04-29T15:54:38.791Z,15.60
2023-04-29T15:57:05.532Z,16.23
2023-04-29T15:59:32.356Z,15.33
2023-04-29T16:01:59.042Z,14.33
2023-04-29T16:04:25.671Z,14.67
2023-04-29T16:06:52.870Z,13.43
2023-04-29T16:09:19.653Z,19.50
2023-04-29T16:11:46.336Z,16.27
2023-04-29T16:14:13.201Z,15.73
2023-04-29T16:16:40.001Z,16.13
2023-04-29T16:19:07.471Z,18.73
2023-04-29T16:21:34.202Z,17.63
2023-04-29T16:24:05.786Z,13.93
2023-04-29T16:26:33.486Z,14.63
2023-04-29T16:29:00.622Z,18.57
2023-04-29T16:31:28.467Z,14.53
2023-04-29T16:33:57.259Z,16.27
2023-04-29T16:36:24.332Z,16.20
2023-04-29T16:38:51.733Z,14.53
2023-04-29T16:41:18.867Z,17.60
2023-04-29T16:43:45.832Z,15.57
2023-04-29T16:46:12.632Z,15.50
2023-04-29T16:48:39.353Z,16.93
2023-04-29T16:51:06.105Z,14.30
2023-04-29T16:53:32.936Z,15.30
2023-04-29T16:55:59.676Z,15.87
2023-04-29T16:58:26.821Z,19.00
2023-04-29T17:00:53.881Z,16.57
2023-04-29T17:03:20.594Z,15.40
2023-04-29T17:05:48.820Z,16.00
2023-04-29T17:08:15.581Z,15.13
2023-04-29T17:10:42.264Z,15.17
2023-04-29T17:13:09.030Z,17.27
2023-04-29T17:15:35.756Z,19.33
2023-04-29T17:18:03.134Z,17.53
2023-04-29T17:20:29.910Z,15.17
2023-04-29T17:22:56.617Z,15.83
2023-04-29T17:25:23.633Z,14.47
2023-04-29T17:27:50.279Z,14.47
2023-04-29T17:30:17.123Z,13.73
2023-04-29T17:32:44.607Z,15.20
2023-04-29T17:35:11.957Z,13.53
2023-04-29T17:37:38.629Z,16.50
2023-04-29T17:40:08.383Z,12.17
2023-04-29T17:42:35.188Z,13.00
2023-04-29T17:45:02.001Z,15.27
2023-04-29T17:47:28.838Z,13.10
2023-04-29T17:49:56.928Z,12.70
2023-04-29T17:52:25.036Z,14.73
2023-04-29T17:54:51.801Z,15.27
2023-04-29T17:57:18.477Z,15.37
2023-04-29T17:59:45.233Z,13.57
2023-04-29T18:02:11.930Z,16.03
2023-04-29T18:04:40.736Z,14.00
2023-04-29T18:07:07.475Z,16.70
2023-04-29T18:09:35.060Z,15.00
2023-04-29T18:12:02.512Z,18.10
2023-04-29T18:14:30.747Z,17.13
2023-04-29T18:16:59.319Z,15.20
2023-04-29T18:19:26.181Z,15.97
2023-04-29T18:21:54.217Z,13.67
2023-04-29T18:24:20.919Z,13.77
2023-04-29T18:26:47.631Z,15.37
2023-04-29T18:29:14.258Z,16.33
2023-04-29T18:31:41.497Z,14.30
2023-04-29T18:34:09.288Z,17.27
2023-04-29T18:36:35.939Z,17.03
2023-04-29T18:39:02.660Z,16.43
2023-04-29T18:41:29.372Z,17.63
2023-04-29T18:43:56.433Z,15.63
2023-04-29T18:46:23.531Z,17.50
2023-04-29T18:48:50.355Z,15.23
2023-04-29T18:51:17.234Z,17.73
2023-04-29T18:53:43.920Z,18.90
2023-04-29T18:56:10.915Z,19.93
2023-04-29T18:58:37.752Z,19.37
2023-04-29T19:01:04.570Z,17.93
2023-04-29T19:03:31.710Z,16.57
2023-04-29T19:06:00.068Z,16.07
2023-04-29T19:08:27.168Z,21.53
2023-04-29T19:10:54.487Z,17.83
2023-04-29T19:13:21.375Z,18.90
2023-04-29T19:15:50.983Z,25.23
2023-04-29T19:18:20.186Z,19.73
2023-04-29T19:20:47.248Z,19.33
2023-04-29T19:23:14.065Z,20.57
2023-04-29T19:25:40.839Z,18.93
2023-04-29T19:28:07.529Z,20.73
2023-04-29T19:30:34.953Z,22.30
2023-04-29T19:33:01.742Z,22.53
2023-04-29T19:35:28.514Z,22.63
2023-04-29T19:37:55.399Z,25.20
2023-04-29T19:40:22.111Z,28.13
2023-04-29T19:42:48.805Z,22.77
2023-04-29T19:45:15.901Z,26.63
2023-04-29T19:47:42.770Z,25.53
2023-04-29T19:50:10.493Z,27.63
2023-04-29T19:52:37.400Z,25.80
2023-04-29T19:55:05.046Z,27.00
2023-04-29T19:57:32.222Z,26.37
2023-04-29T19:59:58.995Z,26.83
2023-04-29T20:02:26.571Z,26.97
2023-04-29T20:04:53.354Z,29.77
2023-04-29T20:07:20.157Z,28.07
2023-04-29T20:09:47.953Z,27.13
2023-04-29T20:12:14.769Z,30.60
2023-04-29T20:14:42.048Z,30.10
2023-04-29T20:17:08.787Z,31.73
2023-04-29T20:19:35.568Z,32.60
2023-04-29T20:22:02.440Z,32.97
2023-04-29T20:24:29.318Z,35.97
2023-04-29T20:26:56.189Z,34.90
2023-04-29T20:29:23.251Z,39.17
2023-04-29T20:31:49.982Z,40.13
2023-04-29T20:34:18.036Z,37.27
2023-04-29T20:36:44.873Z,33.90
2023-04-29T20:39:11.639Z,34.10
2023-04-29T20:41:38.873Z,36.10
2023-04-29T20:44:05.624Z,31.80
2023-04-29T20:46:32.823Z,30.73
2023-04-29T20:48:59.689Z,36.67
2023-04-29T20:51:26.996Z,33.67
2023-04-29T20:53:53.770Z,30.47
2023-04-29T20:56:20.481Z,30.17
2023-04-29T20:58:47.245Z,35.40
2023-04-29T21:01:14.174Z,32.50
2023-04-29T21:03:40.932Z,33.50
2023-04-29T21:06:07.925Z,33.03
2023-04-29T21:08:34.733Z,31.93
2023-04-29T21:11:02.027Z,32.20
2023-04-29T21:13:28.822Z,32.37
2023-04-29T21:15:55.573Z,34.77
2023-04-29T21:18:22.435Z,30.47
2023-04-29T21:20:49.179Z,30.80
2023-04-29T21:23:16.075Z,32.77
2023-04-29T21:25:42.752Z,32.23
2023-04-29T21:28:09.566Z,29.37
2023-04-29T21:30:37.000Z,34.67
2023-04-29T21:33:03.818Z,29.93
2023-04-29T21:35:30.856Z,32.47
2023-04-29T21:37:57.669Z,32.20
2023-04-29T21:40:26.641Z,31.93
2023-04-29T21:42:55.411Z,32.07
2023-04-29T21:45:22.264Z,32.37
2023-04-29T21:47:49.108Z,36.33
2023-04-29T21:50:15.896Z,32.27
2023-04-29T21:52:42.743Z,33.83
2023-04-29T21:55:09.565Z,34.50
2023-04-29T21:57:44.210Z,36.40
2023-04-29T22:00:28.292Z,35.13
2023-04-29T22:02:55.063Z,35.43
2023-04-29T22:05:21.800Z,38.33
2023-04-29T22:07:48.941Z,38.30
2023-04-29T22:10:15.795Z,38.63
2023-04-29T22:12:42.586Z,38.47
2023-04-29T22:15:20.641Z,35.20
2023-04-29T22:17:54.441Z,34.70
2023-04-29T22:20:21.409Z,34.27
2023-04-29T22:22:48.253Z,36.50
2023-04-29T22:25:15.204Z,37.77
2023-04-29T22:27:41.943Z,40.20
2023-04-29T22:30:09.016Z,40.43
2023-04-29T22:32:36.091Z,39.83
2023-04-29T22:35:02.960Z,41.87
2023-04-29T22:37:30.457Z,40.80
2023-04-29T22:39:57.322Z,40.67
2023-04-29T22:42:24.125Z,40.13
2023-04-29T22:44:51.305Z,39.60
2023-04-29T22:47:17.984Z,41.07
2023-04-29T22:49:44.765Z,40.20
2023-04-29T22:52:11.453Z,38.53
2023-04-29T22:54:38.267Z,41.30
2023-04-29T22:57:05.246Z,38.83
2023-04-29T22:59:32.008Z,42.10
2023-04-29T23:01:58.724Z,40.80
2023-04-29T23:04:25.697Z,39.97
2023-04-29T23:06:52.778Z,40.93
2023-04-29T23:09:19.527Z,38.47
2023-04-29T23:11:46.292Z,41.63
2023-04-29T23:14:12.988Z,37.87
2023-04-29T23:16:39.632Z,40.33
2023-04-29T23:19:06.641Z,39.70
2023-04-29T23:21:33.370Z,39.43
2023-04-29T23:24:00.177Z,41.67
2023-04-29T23:26:26.886Z,40.07
2023-04-29T23:28:53.981Z,42.43
2023-04-29T23:31:20.987Z,42.77
2023-04-29T23:33:47.877Z,41.90
2023-04-29T23:36:14.560Z,41.67
2023-04-29T23:38:42.197Z,46.83
2023-04-29T23:41:08.917Z,46.33
2023-04-29T23:43:35.689Z,46.47
2023-04-29T23:46:02.473Z,42.00
2023-04-29T23:48:29.278Z,41.83
2023-04-29T23:50:56.067Z,44.67
2023-04-29T23:53:22.795Z,46.00
2023-04-29T23:55:49.961Z,42.17
2023-04-29T23:58:16.695Z,43.37
